Time;durP1;ratioP1;P1;durP2;ratioP2;P2;SDS_P1;SDS_P2;PMS_P1;PMS_P2;Temp;Humidity;BMP_temperature;BMP_pressure;BME280_temperature;BME280_humidity;BME280_pressure;Samples;Min_cycle;Max_cycle;Signal;HPM_P1;HPM_P2
2021/12/06 00:01:31;;;;;;;27.97;15.57;;;1.80;99.90;;;;;;5079949;28;20292;-64
2021/12/06 00:04:02;;;;;;;26.50;15.57;;;1.80;99.90;;;;;;5079449;28;20291;-65
2021/12/06 00:06:33;;;;;;;23.03;14.27;;;1.80;99.90;;;;;;5070964;28;20197;-64
2021/12/06 00:09:02;;;;;;;25.83;14.60;;;1.80;99.90;;;;;;5081569;28;20503;-65
2021/12/06 00:11:29;;;;;;;24.37;14.77;;;1.80;99.90;;;;;;5063174;28;20241;-64
2021/12/06 00:13:56;;;;;;;23.77;15.13;;;1.80;99.90;;;;;;5082232;28;20232;-64
2021/12/06 00:16:24;;;;;;;25.90;16.63;;;1.80;99.90;;;;;;5091495;28;20248;-63
2021/12/06 00:18:52;;;;;;;21.90;13.83;;;1.80;99.90;;;;;;5077462;28;20579;-64
2021/12/06 00:21:20;;;;;;;25.87;16.27;;;1.80;99.90;;;;;;5071892;28;20323;-63
2021/12/06 00:23:50;;;;;;;27.40;16.57;;;1.90;99.90;;;;;;5082650;28;20523;-64
2021/12/06 00:26:17;;;;;;;27.23;15.50;;;1.80;99.90;;;;;;5090397;28;20236;-65
2021/12/06 00:28:46;;;;;;;26.37;15.27;;;1.90;99.90;;;;;;5089271;28;20599;-65
2021/12/06 00:31:15;;;;;;;25.10;14.27;;;1.90;99.90;;;;;;5095151;28;20673;-63
2021/12/06 00:33:43;;;;;;;24.90;14.07;;;1.90;99.90;;;;;;5085366;28;20200;-64
2021/12/06 00:36:16;;;;;;;24.40;14.90;;;1.90;99.90;;;;;;5085740;28;20223;-64
2021/12/06 00:38:45;;;;;;;29.47;16.10;;;1.90;99.90;;;;;;5092089;28;20223;-64
2021/12/06 00:41:13;;;;;;;25.13;14.60;;;1.90;99.90;;;;;;5095149;28;20328;-64
2021/12/06 00:43:40;;;;;;;26.60;14.63;;;1.90;99.90;;;;;;5080298;28;20304;-64
2021/12/06 00:46:07;;;;;;;24.27;14.53;;;1.90;99.90;;;;;;5095097;28;20617;-65
2021/12/06 00:48:34;;;;;;;25.87;15.30;;;1.90;99.90;;;;;;5080579;28;20213;-64
2021/12/06 00:51:02;;;;;;;24.43;15.40;;;1.90;99.90;;;;;;5091261;28;20295;-63
2021/12/06 00:53:29;;;;;;;26.27;15.13;;;1.90;99.90;;;;;;5084493;28;20236;-64
2021/12/06 00:55:56;;;;;;;24.27;14.77;;;1.90;99.90;;;;;;5078916;28;20313;-64
2021/12/06 00:58:24;;;;;;;25.63;15.20;;;2.00;99.90;;;;;;5080498;28;20654;-64
2021/12/06 01:00:53;;;;;;;24.97;14.93;;;2.00;99.90;;;;;;5074357;28;20307;-64
2021/12/06 01:03:27;;;;;;;24.67;14.37;;;2.00;99.90;;;;;;5089342;28;20292;-64
2021/12/06 01:05:54;;;;;;;26.70;14.53;;;2.00;99.90;;;;;;5081068;28;20293;-64
2021/12/06 01:08:22;;;;;;;24.77;15.07;;;2.00;99.90;;;;;;5074579;28;20216;-64
2021/12/06 01:10:49;;;;;;;24.03;14.47;;;2.00;99.90;;;;;;5063930;28;20293;-64
2021/12/06 01:13:17;;;;;;;26.27;14.27;;;1.90;99.90;;;;;;5070644;28;20700;-63
2021/12/06 01:15:45;;;;;;;24.53;14.77;;;2.00;99.90;;;;;;5074420;28;20214;-66
2021/12/06 01:18:17;;;;;;;22.63;13.70;;;2.00;99.90;;;;;;5088619;28;20658;-63
2021/12/06 01:20:52;;;;;;;23.83;13.40;;;2.00;99.90;;;;;;5083142;28;20755;-64
2021/12/06 01:23:23;;;;;;;23.83;13.93;;;1.90;99.90;;;;;;5087760;28;20469;-64
2021/12/06 01:25:58;;;;;;;23.27;14.00;;;1.90;99.90;;;;;;5086555;28;20201;-64
2021/12/06 01:31:30;;;;;;;24.30;13.23;;;1.90;99.90;;;;;;5055380;28;20226;-65
2021/12/06 01:39:07;;;;;;;28.07;14.10;;;1.90;99.90;;;;;;5084902;28;20311;-64
2021/12/06 01:39:40;;;;;;;23.33;12.87;;;1.90;99.90;;;;;;5093786;28;20210;-64
2021/12/06 01:42:09;;;;;;;23.73;14.13;;;1.90;99.90;;;;;;5092281;28;20295;-64
2021/12/06 01:44:37;;;;;;;23.80;13.67;;;1.90;99.90;;;;;;5073724;28;20205;-64
2021/12/06 01:47:09;;;;;;;22.27;13.17;;;1.90;99.90;;;;;;5087231;28;20303;-63
2021/12/06 01:49:38;;;;;;;24.77;14.03;;;1.90;99.90;;;;;;5074057;28;20760;-64
2021/12/06 01:52:08;;;;;;;23.87;13.20;;;1.90;99.90;;;;;;5083090;28;20655;-65
2021/12/06 01:54:35;;;;;;;24.43;13.70;;;1.90;99.90;;;;;;5090898;28;20287;-65
2021/12/06 01:57:03;;;;;;;21.13;12.87;;;1.90;99.90;;;;;;5077323;28;20260;-64
2021/12/06 01:59:30;;;;;;;22.97;13.33;;;1.90;99.90;;;;;;5076606;28;20252;-63
2021/12/06 02:01:58;;;;;;;24.43;13.67;;;1.90;99.90;;;;;;5091996;28;20301;-64
2021/12/06 02:04:28;;;;;;;21.97;13.60;;;1.90;99.90;;;;;;5066174;28;20674;-63
2021/12/06 02:06:55;;;;;;;24.67;14.00;;;1.90;99.90;;;;;;5073712;28;20720;-65
2021/12/06 02:09:26;;;;;;;20.20;12.80;;;1.90;99.90;;;;;;5086740;28;20303;-63
2021/12/06 02:11:54;;;;;;;24.13;13.53;;;2.00;99.90;;;;;;5092156;28;20208;-65
2021/12/06 02:14:30;;;;;;;22.00;12.57;;;2.00;99.90;;;;;;5072847;28;20646;-64
2021/12/06 02:17:08;;;;;;;20.03;12.93;;;2.00;99.90;;;;;;5073076;28;20193;-65
2021/12/06 02:19:41;;;;;;;20.73;12.70;;;2.00;99.90;;;;;;5086736;28;20295;-64
2021/12/06 02:22:13;;;;;;;25.27;13.17;;;2.00;99.90;;;;;;5088649;28;20247;-65
2021/12/06 02:24:40;;;;;;;21.60;13.30;;;2.00;99.90;;;;;;5073773;28;20704;-64
2021/12/06 02:27:09;;;;;;;21.80;12.00;;;2.00;99.90;;;;;;5075748;28;20297;-64
2021/12/06 02:29:36;;;;;;;20.73;13.07;;;2.00;99.90;;;;;;5084590;28;20716;-64
2021/12/06 02:32:09;;;;;;;20.97;13.03;;;1.90;99.90;;;;;;5075338;28;20194;-64
2021/12/06 02:34:36;;;;;;;20.73;12.87;;;1.90;99.90;;;;;;5079533;28;20194;-64
2021/12/06 02:37:04;;;;;;;20.27;12.60;;;1.90;99.90;;;;;;5072972;28;20226;-65
2021/12/06 02:39:33;;;;;;;21.27;12.37;;;1.90;99.90;;;;;;5083668;28;20299;-65
2021/12/06 02:42:00;;;;;;;20.27;12.30;;;1.90;99.90;;;;;;5091602;28;20221;-64
2021/12/06 02:44:28;;;;;;;21.37;11.93;;;1.90;99.90;;;;;;5090238;28;20292;-63
2021/12/06 02:46:55;;;;;;;20.27;12.70;;;1.90;99.90;;;;;;5080313;28;20205;-64
2021/12/06 02:49:23;;;;;;;21.27;11.80;;;1.90;99.90;;;;;;5075336;28;20295;-65
2021/12/06 02:51:51;;;;;;;20.37;11.57;;;2.00;99.90;;;;;;5084198;28;20685;-65
2021/12/06 02:54:20;;;;;;;20.87;12.83;;;2.00;99.90;;;;;;5072542;28;20255;-63
2021/12/06 02:56:56;;;;;;;20.70;12.37;;;2.00;99.90;;;;;;5071804;28;20336;-64
2021/12/06 02:59:26;;;;;;;19.73;11.60;;;2.00;99.90;;;;;;5087249;28;20243;-63
2021/12/06 03:01:55;;;;;;;20.87;13.13;;;2.00;99.90;;;;;;5089963;28;20291;-64
2021/12/06 03:04:23;;;;;;;19.80;12.07;;;2.00;99.90;;;;;;5081281;28;20300;-63
2021/12/06 03:06:53;;;;;;;20.63;12.23;;;2.00;99.90;;;;;;5079979;28;20270;-64
2021/12/06 03:09:22;;;;;;;18.80;11.03;;;2.00;99.90;;;;;;5092676;28;20203;-65
2021/12/06 03:11:53;;;;;;;21.33;11.53;;;2.00;99.90;;;;;;5089783;28;20287;-64
2021/12/06 03:14:26;;;;;;;17.80;10.67;;;1.90;99.90;;;;;;5077000;28;20255;-64
2021/12/06 03:16:55;;;;;;;18.53;12.03;;;1.90;99.90;;;;;;5072630;28;20197;-64
2021/12/06 03:19:22;;;;;;;18.80;11.50;;;1.90;99.90;;;;;;5084362;28;20236;-64
2021/12/06 03:21:49;;;;;;;16.03;10.77;;;1.90;99.90;;;;;;5090906;28;20277;-64
2021/12/06 03:24:16;;;;;;;20.67;11.50;;;1.90;99.90;;;;;;5080844;28;20244;-63
2021/12/06 03:26:45;;;;;;;18.20;11.27;;;1.90;99.90;;;;;;5087774;28;20295;-63
2021/12/06 03:29:14;;;;;;;19.73;11.97;;;1.90;99.90;;;;;;5092498;28;20250;-64
2021/12/06 03:31:41;;;;;;;17.77;10.83;;;1.90;99.90;;;;;;5077823;28;20316;-64
2021/12/06 03:34:09;;;;;;;17.70;11.30;;;1.90;99.90;;;;;;5070422;28;20300;-65
2021/12/06 03:36:38;;;;;;;18.30;11.73;;;1.90;99.90;;;;;;5066911;28;20300;-64
2021/12/06 03:39:08;;;;;;;16.57;10.70;;;1.90;99.90;;;;;;5087329;28;20324;-64
2021/12/06 03:41:35;;;;;;;17.93;10.23;;;1.90;99.90;;;;;;5084139;28;20321;-64
2021/12/06 03:44:03;;;;;;;16.37;10.00;;;1.90;99.90;;;;;;5075919;28;20200;-64
2021/12/06 03:46:32;;;;;;;19.03;11.23;;;1.90;99.90;;;;;;5082946;28;20295;-64
2021/12/06 03:48:59;;;;;;;15.77;9.97;;;1.90;99.90;;;;;;5074676;28;20205;-65
2021/12/06 03:51:27;;;;;;;17.17;10.57;;;1.90;99.90;;;;;;5090499;28;20296;-64
2021/12/06 03:53:54;;;;;;;16.93;9.93;;;1.80;99.90;;;;;;5085261;28;20611;-64
2021/12/06 03:56:21;;;;;;;15.20;10.23;;;1.80;99.90;;;;;;5064541;28;20231;-63
2021/12/06 03:58:48;;;;;;;15.63;10.20;;;1.80;99.90;;;;;;5091540;28;20209;-63
2021/12/06 04:01:15;;;;;;;17.70;10.97;;;1.80;99.90;;;;;;5091649;28;20224;-65
2021/12/06 04:03:44;;;;;;;15.73;9.60;;;1.80;99.90;;;;;;5084752;28;20299;-64
2021/12/06 04:06:12;;;;;;;16.27;10.27;;;1.90;99.90;;;;;;5076344;28;20327;-63
2021/12/06 04:08:39;;;;;;;14.73;9.20;;;1.90;99.90;;;;;;5073997;28;20292;-63
2021/12/06 04:11:07;;;;;;;14.50;9.93;;;1.90;99.90;;;;;;5089228;28;20212;-64
2021/12/06 04:13:34;;;;;;;15.53;10.33;;;1.90;99.90;;;;;;5086407;28;20651;-64
2021/12/06 04:16:03;;;;;;;14.93;10.33;;;1.90;99.90;;;;;;5080793;28;20301;-64
2021/12/06 04:18:30;;;;;;;14.13;9.30;;;1.80;99.90;;;;;;5079107;28;20291;-65
2021/12/06 04:20:59;;;;;;;15.90;9.73;;;1.80;99.90;;;;;;5088932;28;20312;-64
2021/12/06 04:23:26;;;;;;;12.40;9.03;;;1.80;99.90;;;;;;5080138;28;20209;-64
2021/12/06 04:25:53;;;;;;;15.27;9.57;;;1.80;99.90;;;;;;5091713;28;20952;-63
2021/12/06 04:28:21;;;;;;;15.37;9.17;;;1.80;99.90;;;;;;5095614;28;20287;-63
2021/12/06 04:30:50;;;;;;;14.70;9.40;;;1.80;99.90;;;;;;5088207;28;20419;-63
2021/12/06 04:33:17;;;;;;;14.67;9.73;;;1.80;99.90;;;;;;5075951;28;20576;-62
2021/12/06 04:35:45;;;;;;;15.00;9.43;;;1.80;99.90;;;;;;5083985;28;20243;-64
2021/12/06 04:38:14;;;;;;;14.27;8.87;;;1.80;99.90;;;;;;5095887;28;20243;-63
2021/12/06 04:40:41;;;;;;;14.00;9.17;;;1.80;99.90;;;;;;5090973;28;20296;-63
2021/12/06 04:43:09;;;;;;;14.00;9.33;;;1.80;99.90;;;;;;5075596;28;20209;-64
2021/12/06 04:45:36;;;;;;;15.23;9.67;;;1.80;99.90;;;;;;5085293;28;20208;-63
2021/12/06 04:48:04;;;;;;;15.67;10.47;;;1.80;99.90;;;;;;5089913;28;20215;-64
2021/12/06 04:50:33;;;;;;;13.47;9.47;;;1.80;99.90;;;;;;5087064;28;20228;-65
2021/12/06 04:53:04;;;;;;;15.27;9.67;;;1.80;99.90;;;;;;5089145;28;20650;-63
2021/12/06 04:55:44;;;;;;;15.10;9.40;;;1.90;99.90;;;;;;5085623;28;20300;-63
2021/12/06 04:58:13;;;;;;;16.83;9.57;;;1.80;99.90;;;;;;5089360;28;20756;-64
2021/12/06 05:00:48;;;;;;;14.93;9.00;;;1.80;99.90;;;;;;5075723;28;20244;-64
2021/12/06 05:03:16;;;;;;;17.50;10.43;;;1.90;99.90;;;;;;5087210;28;20204;-63
2021/12/06 05:05:47;;;;;;;16.77;10.37;;;1.90;99.90;;;;;;5078014;28;20224;-64
2021/12/06 05:08:17;;;;;;;16.17;10.50;;;1.90;99.90;;;;;;5093534;28;20213;-65
2021/12/06 05:10:46;;;;;;;16.97;11.30;;;1.80;99.90;;;;;;5093338;28;20649;-63
2021/12/06 05:13:13;;;;;;;19.83;10.97;;;1.80;99.90;;;;;;5073265;28;20292;-64
2021/12/06 05:15:40;;;;;;;19.13;11.97;;;1.70;99.90;;;;;;5072928;28;20288;-64
2021/12/06 05:18:07;;;;;;;19.23;12.17;;;1.70;99.90;;;;;;5077844;28;20213;-64
2021/12/06 05:20:35;;;;;;;19.47;11.93;;;1.70;99.90;;;;;;5073441;28;20244;-64
2021/12/06 05:23:03;;;;;;;19.60;11.97;;;1.70;99.90;;;;;;5073521;28;20201;-64
2021/12/06 05:25:30;;;;;;;19.07;10.90;;;1.70;99.90;;;;;;5073768;28;20307;-64
2021/12/06 05:27:59;;;;;;;17.40;11.33;;;1.60;99.90;;;;;;5074592;28;20209;-64
2021/12/06 05:30:27;;;;;;;19.40;11.67;;;1.60;99.90;;;;;;5071001;28;20229;-64
2021/12/06 05:32:57;;;;;;;18.60;11.73;;;1.50;99.90;;;;;;5073988;28;20212;-64
2021/12/06 05:35:25;;;;;;;21.47;12.53;;;1.60;99.90;;;;;;5073209;28;20208;-64
2021/12/06 05:37:54;;;;;;;21.37;12.77;;;1.50;99.90;;;;;;5073423;28;20319;-64
2021/12/06 05:40:25;;;;;;;17.40;11.07;;;1.50;99.90;;;;;;5073261;28;20212;-65
2021/12/06 05:42:53;;;;;;;21.27;11.93;;;1.60;99.90;;;;;;5073044;28;20328;-64
2021/12/06 05:45:24;;;;;;;18.67;12.53;;;1.60;99.90;;;;;;5073801;28;20288;-64
2021/12/06 05:47:52;;;;;;;19.13;11.43;;;1.60;99.90;;;;;;5073300;28;20878;-65
2021/12/06 05:50:22;;;;;;;21.87;12.70;;;1.60;99.90;;;;;;5080683;28;20260;-64
2021/12/06 05:52:52;;;;;;;21.40;12.00;;;1.60;99.90;;;;;;5082022;28;20570;-67
2021/12/06 05:55:20;;;;;;;19.33;11.70;;;1.60;99.90;;;;;;5087721;28;20208;-66
2021/12/06 05:57:47;;;;;;;20.57;12.00;;;1.60;99.90;;;;;;5087018;28;20225;-64
2021/12/06 06:00:20;;;;;;;19.07;12.47;;;1.60;99.90;;;;;;5079362;28;20611;-64
2021/12/06 06:02:48;;;;;;;17.43;10.73;;;1.60;99.90;;;;;;5078116;28;20674;-64
2021/12/06 06:05:19;;;;;;;18.70;11.37;;;1.60;99.90;;;;;;5086579;28;20300;-64
2021/12/06 06:07:46;;;;;;;17.83;11.70;;;1.60;99.90;;;;;;5087285;28;20200;-64
2021/12/06 06:10:13;;;;;;;17.97;11.03;;;1.60;99.90;;;;;;5087902;28;20201;-64
2021/12/06 06:12:40;;;;;;;18.70;11.53;;;1.60;99.90;;;;;;5085513;28;20277;-65
2021/12/06 06:15:08;;;;;;;17.40;11.00;;;1.50;99.90;;;;;;5088169;28;20619;-64
2021/12/06 06:17:40;;;;;;;17.97;11.10;;;1.50;99.90;;;;;;5072891;28;20618;-67
2021/12/06 06:20:12;;;;;;;18.33;10.93;;;1.50;99.90;;;;;;5072273;28;20208;-65
2021/12/06 06:22:39;;;;;;;15.77;10.30;;;1.50;99.90;;;;;;5072543;28;20304;-64
2021/12/06 06:25:07;;;;;;;17.60;10.33;;;1.50;99.90;;;;;;5071804;28;20673;-64
2021/12/06 06:27:34;;;;;;;17.90;10.33;;;1.50;99.90;;;;;;5072180;28;20244;-64
2021/12/06 06:30:01;;;;;;;16.27;10.50;;;1.50;99.90;;;;;;5072203;28;20320;-65
2021/12/06 06:32:28;;;;;;;15.63;10.27;;;1.50;99.90;;;;;;5071652;28;20212;-64
2021/12/06 06:34:55;;;;;;;17.63;11.20;;;1.50;99.90;;;;;;5071786;28;20256;-64
2021/12/06 06:37:23;;;;;;;19.07;10.70;;;1.50;99.90;;;;;;5071961;28;20637;-64
2021/12/06 06:39:50;;;;;;;17.17;10.80;;;1.50;99.90;;;;;;5071880;28;20717;-65
2021/12/06 06:42:22;;;;;;;18.03;11.37;;;1.50;99.90;;;;;;5071885;28;20305;-65
2021/12/06 06:44:50;;;;;;;17.40;10.67;;;1.50;99.90;;;;;;5071574;28;20245;-64
2021/12/06 06:47:17;;;;;;;16.03;10.03;;;1.50;99.90;;;;;;5071851;28;20284;-64
2021/12/06 06:49:44;;;;;;;18.47;10.87;;;1.60;99.90;;;;;;5077112;28;20244;-65
2021/12/06 06:52:11;;;;;;;18.10;10.13;;;1.50;99.90;;;;;;5080397;28;20796;-65
2021/12/06 06:54:39;;;;;;;19.07;10.93;;;1.50;99.90;;;;;;5075042;28;20240;-64
2021/12/06 06:57:06;;;;;;;20.33;10.90;;;1.50;99.90;;;;;;5085778;28;20311;-64
2021/12/06 06:59:33;;;;;;;16.87;10.70;;;1.50;99.90;;;;;;5087245;28;20287;-63
2021/12/06 07:02:00;;;;;;;19.40;11.83;;;1.50;99.90;;;;;;5080393;28;20324;-65
2021/12/06 07:04:27;;;;;;;22.77;12.20;;;1.50;99.90;;;;;;5071893;28;20209;-65
2021/12/06 07:06:54;;;;;;;19.23;11.37;;;1.40;99.90;;;;;;5088373;28;20286;-64
2021/12/06 07:09:21;;;;;;;20.33;12.07;;;1.40;99.90;;;;;;5079114;28;20208;-65
2021/12/06 07:11:50;;;;;;;19.27;11.73;;;1.40;99.90;;;;;;5078592;28;20261;-68
2021/12/06 07:14:18;;;;;;;19.37;11.83;;;1.40;99.90;;;;;;5073902;28;20209;-67
2021/12/06 07:16:48;;;;;;;21.13;12.07;;;1.40;99.90;;;;;;5073035;28;20209;-69
2021/12/06 07:19:15;;;;;;;22.77;12.00;;;1.40;99.90;;;;;;5066003;28;20292;-64
2021/12/06 07:21:42;;;;;;;22.43;12.60;;;1.40;99.90;;;;;;5070380;28;20836;-65
2021/12/06 07:24:09;;;;;;;20.37;11.67;;;1.30;99.90;;;;;;5069397;28;20237;-64
2021/12/06 07:26:36;;;;;;;20.30;12.70;;;1.30;99.90;;;;;;5070344;28;20255;-65
2021/12/06 07:29:07;;;;;;;21.30;12.90;;;1.30;99.90;;;;;;5072182;28;20725;-66
2021/12/06 07:31:34;;;;;;;23.53;12.97;;;1.40;99.90;;;;;;5072036;28;20323;-66
2021/12/06 07:34:01;;;;;;;22.07;12.90;;;1.40;99.90;;;;;;5067500;28;20284;-65
2021/12/06 07:36:30;;;;;;;20.20;12.67;;;1.40;99.90;;;;;;5066260;28;20627;-66
2021/12/06 07:38:57;;;;;;;24.83;14.03;;;1.30;99.90;;;;;;5068865;28;20692;-66
2021/12/06 07:41:28;;;;;;;27.63;14.43;;;1.30;99.90;;;;;;5065784;28;20704;-67
2021/12/06 07:43:56;;;;;;;30.33;14.30;;;1.40;99.90;;;;;;5070912;28;20288;-66
2021/12/06 07:46:25;;;;;;;28.53;15.47;;;1.40;99.90;;;;;;5070537;28;20625;-66
2021/12/06 07:48:53;;;;;;;30.70;15.73;;;1.40;99.90;;;;;;5069667;28;20304;-67
2021/12/06 07:51:21;;;;;;;24.63;14.77;;;1.40;99.90;;;;;;5072770;28;20213;-67
2021/12/06 07:53:49;;;;;;;31.83;15.83;;;1.30;99.90;;;;;;5082079;28;20280;-67
2021/12/06 07:56:16;;;;;;;33.50;16.17;;;1.30;99.90;;;;;;5074531;28;20313;-67
2021/12/06 07:58:43;;;;;;;28.27;15.67;;;1.30;99.90;;;;;;5078399;28;20291;-67
2021/12/06 08:01:11;;;;;;;31.70;15.80;;;1.30;99.90;;;;;;5071108;28;20631;-67
2021/12/06 08:03:41;;;;;;;30.57;16.23;;;1.30;99.90;;;;;;5085053;28;20678;-64
2021/12/06 08:06:09;;;;;;;28.47;15.07;;;1.30;99.90;;;;;;5076824;28;20214;-66
2021/12/06 08:08:38;;;;;;;33.10;15.60;;;1.30;99.90;;;;;;5081926;28;20209;-66
2021/12/06 08:11:09;;;;;;;32.53;17.00;;;1.30;99.90;;;;;;5086794;28;20245;-67
2021/12/06 08:13:37;;;;;;;30.87;16.53;;;1.30;99.90;;;;;;5083912;28;20197;-66
2021/12/06 08:16:08;;;;;;;34.60;17.43;;;1.30;99.90;;;;;;5091403;28;20284;-66
2021/12/06 08:18:35;;;;;;;34.03;17.40;;;1.30;99.90;;;;;;5075188;28;20367;-65
2021/12/06 08:21:04;;;;;;;40.43;18.13;;;1.30;99.90;;;;;;5070611;28;20215;-65
2021/12/06 08:23:31;;;;;;;35.40;18.57;;;1.40;99.90;;;;;;5069545;28;20257;-66
2021/12/06 08:25:59;;;;;;;36.63;18.80;;;1.30;99.90;;;;;;5071284;28;20213;-67
2021/12/06 08:28:28;;;;;;;36.87;19.37;;;1.30;99.90;;;;;;5070508;28;20615;-66
2021/12/06 08:30:55;;;;;;;36.50;18.80;;;1.30;99.90;;;;;;5070179;28;20286;-67
2021/12/06 08:33:23;;;;;;;38.40;20.03;;;1.30;99.90;;;;;;5070314;28;20754;-66
2021/12/06 08:35:52;;;;;;;40.37;21.07;;;1.30;99.90;;;;;;5071638;28;20240;-66
2021/12/06 08:38:23;;;;;;;42.20;19.90;;;1.30;99.90;;;;;;5070296;28;20201;-66
2021/12/06 08:40:52;;;;;;;36.93;19.00;;;1.20;99.90;;;;;;5071210;28;20288;-68
2021/12/06 08:43:20;;;;;;;40.60;19.40;;;1.20;99.90;;;;;;5069641;28;20627;-66
2021/12/06 08:45:51;;;;;;;38.10;19.57;;;1.20;99.90;;;;;;5070297;28;20425;-66
2021/12/06 08:48:19;;;;;;;41.93;20.00;;;1.20;99.90;;;;;;5070412;28;20201;-66
2021/12/06 08:50:47;;;;;;;39.60;18.63;;;1.10;99.90;;;;;;5079657;28;20285;-67
2021/12/06 08:53:14;;;;;;;43.03;19.50;;;1.10;99.90;;;;;;5079728;28;20220;-66
2021/12/06 08:55:42;;;;;;;40.03;19.57;;;1.10;99.90;;;;;;5090311;28;20541;-66
2021/12/06 08:58:09;;;;;;;39.97;20.27;;;1.10;99.90;;;;;;5077299;28;20948;-65
2021/12/06 09:00:37;;;;;;;39.93;18.97;;;1.10;99.90;;;;;;5074220;28;20728;-66
2021/12/06 09:03:05;;;;;;;39.87;20.70;;;1.10;99.90;;;;;;5074119;28;20325;-64
2021/12/06 09:05:35;;;;;;;37.43;19.77;;;1.10;99.90;;;;;;5072866;28;20316;-65
2021/12/06 09:08:03;;;;;;;39.67;19.10;;;1.10;99.90;;;;;;5073407;28;20240;-65
2021/12/06 09:10:30;;;;;;;39.30;18.70;;;1.10;99.90;;;;;;5071885;28;20236;-66
2021/12/06 09:12:59;;;;;;;41.30;19.00;;;1.10;99.90;;;;;;5069409;28;20275;-65
2021/12/06 09:15:26;;;;;;;40.10;19.83;;;1.10;99.90;;;;;;5070691;28;20296;-65
2021/12/06 09:17:55;;;;;;;40.27;18.70;;;1.10;99.90;;;;;;5075171;28;20300;-66
2021/12/06 09:20:27;;;;;;;37.87;18.73;;;1.10;99.90;;;;;;5069848;28;20209;-65
2021/12/06 09:22:54;;;;;;;45.30;22.33;;;1.10;99.90;;;;;;5068684;28;20263;-65
2021/12/06 09:25:22;;;;;;;37.47;19.77;;;1.10;99.90;;;;;;5073141;28;20302;-64
2021/12/06 09:27:49;;;;;;;42.53;19.90;;;1.00;99.90;;;;;;5070905;28;20296;-64
2021/12/06 09:30:19;;;;;;;37.17;18.93;;;1.10;99.90;;;;;;5071503;28;20331;-64
2021/12/06 09:32:47;;;;;;;39.53;19.50;;;1.00;99.90;;;;;;5072864;28;20674;-65
2021/12/06 09:35:20;;;;;;;37.80;19.37;;;1.00;99.90;;;;;;5069963;28;20301;-66
2021/12/06 09:37:48;;;;;;;33.87;20.03;;;1.00;99.90;;;;;;5069641;28;20201;-66
2021/12/06 09:40:15;;;;;;;40.37;21.13;;;1.10;99.90;;;;;;5071775;28;20272;-65
2021/12/06 09:42:43;;;;;;;42.73;20.90;;;1.10;99.90;;;;;;5072577;28;20260;-65
2021/12/06 09:45:12;;;;;;;41.23;20.93;;;1.10;99.90;;;;;;5073053;28;20209;-66
2021/12/06 09:47:40;;;;;;;39.27;20.63;;;1.10;99.90;;;;;;5065718;28;20292;-65
2021/12/06 09:50:08;;;;;;;39.37;19.37;;;1.20;99.90;;;;;;5074701;28;20266;-65
2021/12/06 09:52:36;;;;;;;40.80;21.50;;;1.20;99.90;;;;;;5058502;28;20270;-66
2021/12/06 09:55:03;;;;;;;34.50;20.53;;;1.20;99.90;;;;;;5070424;28;20197;-66
2021/12/06 09:57:31;;;;;;;38.47;20.13;;;1.20;99.90;;;;;;5068166;28;20779;-65
2021/12/06 09:59:58;;;;;;;36.87;19.63;;;1.20;99.90;;;;;;5067693;28;20765;-66
2021/12/06 10:02:27;;;;;;;39.00;18.80;;;1.20;99.90;;;;;;5062979;28;20221;-65
2021/12/06 10:04:55;;;;;;;46.58;28.00;;;1.20;99.90;;;;;;5066165;28;20475;-65
2021/12/06 10:07:24;;;;;;;42.00;21.17;;;1.20;99.90;;;;;;5072953;28;20205;-66
2021/12/06 10:09:52;;;;;;;36.73;19.87;;;1.20;99.90;;;;;;5068934;28;20225;-67
2021/12/06 10:12:21;;;;;;;36.03;20.03;;;1.20;99.90;;;;;;5071853;28;20210;-66
2021/12/06 10:14:49;;;;;;;37.63;20.13;;;1.20;99.90;;;;;;5072385;28;20229;-66
2021/12/06 10:17:17;;;;;;;35.77;18.50;;;1.10;99.90;;;;;;5072360;28;20240;-66
2021/12/06 10:19:45;;;;;;;34.43;18.03;;;1.10;99.90;;;;;;5072926;28;20662;-68
2021/12/06 10:22:15;;;;;;;33.97;18.17;;;1.20;99.90;;;;;;5071827;28;20265;-66
2021/12/06 10:24:50;;;;;;;37.10;19.33;;;1.20;99.90;;;;;;5071039;28;20201;-64
2021/12/06 10:27:17;;;;;;;37.10;18.37;;;1.10;99.90;;;;;;5069984;28;20598;-65
2021/12/06 10:29:48;;;;;;;37.43;19.23;;;1.20;99.90;;;;;;5072589;28;20197;-66
2021/12/06 10:32:18;;;;;;;35.77;18.77;;;1.20;99.90;;;;;;5072655;28;20197;-66
2021/12/06 10:34:49;;;;;;;37.30;18.53;;;1.20;99.90;;;;;;5066769;28;20648;-65
2021/12/06 10:37:37;;;;;;;37.07;20.17;;;1.10;99.90;;;;;;5066352;28;20239;-66
2021/12/06 10:40:09;;;;;;;34.77;19.50;;;1.10;99.90;;;;;;5071721;28;20232;-66
2021/12/06 10:42:39;;;;;;;41.23;20.60;;;1.10;99.90;;;;;;5068122;28;20241;-64
2021/12/06 10:45:10;;;;;;;38.00;20.77;;;1.00;99.90;;;;;;5064104;28;20288;-65
2021/12/06 10:47:38;;;;;;;35.80;19.80;;;1.00;99.90;;;;;;5068892;28;20237;-64
2021/12/06 10:50:22;;;;;;;33.57;18.73;;;1.00;99.90;;;;;;5060406;28;20244;-65
2021/12/06 10:52:54;;;;;;;44.10;21.80;;;1.00;99.90;;;;;;5068661;28;20197;-67
2021/12/06 10:55:24;;;;;;;34.07;19.57;;;1.10;99.90;;;;;;5070780;28;20250;-65
2021/12/06 10:57:54;;;;;;;38.70;19.63;;;1.10;99.90;;;;;;5064817;28;20242;-66
2021/12/06 11:00:41;;;;;;;41.23;20.00;;;1.10;99.90;;;;;;5070771;28;20323;-67
2021/12/06 11:03:23;;;;;;;35.63;18.87;;;1.10;99.90;;;;;;5067731;28;20218;-67
2021/12/06 11:05:55;;;;;;;38.57;19.87;;;1.10;99.90;;;;;;5065941;28;20210;-67
2021/12/06 11:08:24;;;;;;;43.47;21.60;;;1.10;99.90;;;;;;5070253;28;20292;-67
2021/12/06 11:10:54;;;;;;;41.87;21.57;;;1.10;99.90;;;;;;5072371;28;20201;-67
2021/12/06 11:13:24;;;;;;;39.17;19.60;;;1.20;99.90;;;;;;5065480;28;20202;-67
2021/12/06 11:16:06;;;;;;;37.73;20.03;;;1.20;99.90;;;;;;5065378;28;20266;-66
2021/12/06 11:18:42;;;;;;;35.13;18.53;;;1.20;99.90;;;;;;5074706;28;20216;-67
2021/12/06 11:21:33;;;;;;;37.70;19.93;;;1.20;99.90;;;;;;5069614;28;20254;-66
2021/12/06 11:24:05;;;;;;;39.20;19.97;;;1.10;99.90;;;;;;5067002;28;20225;-67
2021/12/06 11:26:34;;;;;;;36.57;18.70;;;1.10;99.90;;;;;;5065754;28;20682;-65
2021/12/06 11:29:08;;;;;;;35.17;19.07;;;1.10;99.90;;;;;;5069053;28;20460;-67
2021/12/06 11:31:36;;;;;;;35.00;19.33;;;1.10;99.90;;;;;;5069326;28;20263;-68
2021/12/06 11:34:07;;;;;;;35.47;17.13;;;1.00;99.90;;;;;;5065292;28;20205;-67
2021/12/06 11:36:35;;;;;;;32.87;18.20;;;1.00;99.90;;;;;;5065546;28;20210;-67
2021/12/06 11:39:07;;;;;;;39.13;19.10;;;1.00;99.90;;;;;;5070188;28;20209;-69
2021/12/06 11:41:34;;;;;;;37.50;18.73;;;1.00;99.90;;;;;;5071056;28;20204;-66
2021/12/06 11:44:16;;;;;;;34.77;19.37;;;1.00;99.90;;;;;;5069653;28;20225;-67
2021/12/06 11:46:43;;;;;;;33.70;18.27;;;1.00;99.90;;;;;;5064262;28;20207;-68
2021/12/06 11:49:21;;;;;;;30.80;17.57;;;1.00;99.90;;;;;;5073493;28;20615;-67
2021/12/06 11:51:51;;;;;;;31.27;17.30;;;1.00;99.90;;;;;;5074332;28;20589;-67
2021/12/06 11:54:19;;;;;;;33.57;17.80;;;1.00;99.90;;;;;;5073978;28;20205;-67
2021/12/06 11:56:48;;;;;;;32.83;17.37;;;1.00;99.90;;;;;;5076084;28;20650;-68
2021/12/06 11:59:18;;;;;;;36.17;18.57;;;1.00;99.90;;;;;;5079480;28;20229;-68
2021/12/06 12:01:49;;;;;;;36.07;17.33;;;0.90;99.90;;;;;;5070417;28;20292;-67
2021/12/06 12:04:18;;;;;;;30.30;16.27;;;1.00;99.90;;;;;;5076591;28;20324;-67
2021/12/06 12:06:47;;;;;;;34.00;17.30;;;0.90;99.90;;;;;;5090435;28;20353;-66
2021/12/06 12:09:17;;;;;;;31.47;17.30;;;0.90;99.90;;;;;;5067846;28;20618;-67
2021/12/06 12:12:01;;;;;;;30.13;17.33;;;0.90;99.90;;;;;;5069809;28;20205;-67
2021/12/06 12:14:31;;;;;;;38.63;19.13;;;0.90;99.90;;;;;;5064514;28;20256;-66
2021/12/06 12:17:00;;;;;;;32.27;17.80;;;0.90;99.90;;;;;;5063198;28;20210;-67
2021/12/06 12:19:28;;;;;;;32.30;16.37;;;0.90;99.90;;;;;;5063226;28;20228;-66
2021/12/06 12:21:55;;;;;;;28.27;17.07;;;0.90;99.90;;;;;;5069188;28;20211;-66
2021/12/06 12:24:22;;;;;;;35.73;18.37;;;0.90;99.90;;;;;;5070449;28;20229;-65
2021/12/06 12:27:02;;;;;;;34.07;18.40;;;0.90;99.90;;;;;;5074186;28;20235;-66
2021/12/06 12:29:31;;;;;;;38.03;19.80;;;0.90;99.90;;;;;;5074253;28;20201;-67
2021/12/06 12:32:00;;;;;;;39.07;18.77;;;0.90;99.90;;;;;;5073533;28;20237;-66
2021/12/06 12:34:29;;;;;;;34.53;19.20;;;0.90;99.90;;;;;;5074134;28;20213;-66
2021/12/06 12:36:57;;;;;;;36.33;19.77;;;0.80;99.90;;;;;;5068554;28;20202;-66
2021/12/06 12:39:26;;;;;;;33.30;19.37;;;0.80;99.90;;;;;;5071905;28;20254;-66
2021/12/06 12:41:56;;;;;;;39.03;19.27;;;0.80;99.90;;;;;;5072629;28;20220;-67
2021/12/06 12:44:24;;;;;;;37.77;18.83;;;0.80;99.90;;;;;;5073256;28;20225;-67
2021/12/06 12:46:53;;;;;;;40.43;20.23;;;0.80;99.90;;;;;;5071741;28;20205;-67
2021/12/06 12:49:30;;;;;;;37.10;20.00;;;0.80;99.90;;;;;;5075070;28;20202;-67
2021/12/06 12:51:58;;;;;;;38.10;19.83;;;0.80;99.90;;;;;;5084808;28;20619;-67
2021/12/06 12:54:28;;;;;;;42.23;21.60;;;0.80;99.90;;;;;;5091147;28;20227;-66